sensor_id;sensor_type;location;lat;lon;timestamp;pressure;altitude;pressure_sealevel;temperature;humidity
41862;BME280;27537;57.134;-2.136;2024-02-23T00:01:09;96655.34;;;2.72;100.00
41862;BME280;27537;57.134;-2.136;2024-02-23T00:03:38;96657.81;;;2.73;100.00
41862;BME280;27537;57.134;-2.136;2024-02-23T00:06:05;96650.81;;;2.62;100.00
41862;BME280;27537;57.134;-2.136;2024-02-23T00:08:32;96649.06;;;2.63;100.00
41862;BME280;27537;57.134;-2.136;2024-02-23T00:10:59;96654.84;;;2.66;100.00
41862;BME280;27537;57.134;-2.136;2024-02-23T00:13:26;96649.78;;;2.65;100.00
41862;BME280;27537;57.134;-2.136;2024-02-23T00:15:53;96658.13;;;2.69;100.00
41862;BME280;27537;57.134;-2.136;2024-02-23T00:18:19;96645.38;;;2.54;100.00
41862;BME280;27537;57.134;-2.136;2024-02-23T00:20:47;96668.50;;;2.56;100.00
41862;BME280;27537;57.134;-2.136;2024-02-23T00:23:14;96663.53;;;2.53;100.00
41862;BME280;27537;57.134;-2.136;2024-02-23T00:25:41;96657.56;;;2.52;100.00
41862;BME280;27537;57.134;-2.136;2024-02-23T00:28:08;96659.69;;;2.58;100.00
41862;BME280;27537;57.134;-2.136;2024-02-23T00:30:35;96658.69;;;2.61;100.00
41862;BME280;27537;57.134;-2.136;2024-02-23T00:33:03;96658.28;;;2.54;100.00
41862;BME280;27537;57.134;-2.136;2024-02-23T00:35:30;96653.56;;;2.48;100.00
41862;BME280;27537;57.134;-2.136;2024-02-23T00:37:56;96647.94;;;2.54;100.00
41862;BME280;27537;57.134;-2.136;2024-02-23T00:40:23;96644.56;;;2.54;100.00
41862;BME280;27537;57.134;-2.136;2024-02-23T00:42:50;96637.81;;;2.51;100.00
41862;BME280;27537;57.134;-2.136;2024-02-23T00:45:17;96642.19;;;2.51;100.00
41862;BME280;27537;57.134;-2.136;2024-02-23T00:47:44;96631.19;;;2.60;100.00
41862;BME280;27537;57.134;-2.136;2024-02-23T00:50:13;96635.25;;;2.51;100.00
41862;BME280;27537;57.134;-2.136;2024-02-23T00:52:43;96630.69;;;2.55;100.00
41862;BME280;27537;57.134;-2.136;2024-02-23T00:55:09;96636.47;;;2.58;100.00
41862;BME280;27537;57.134;-2.136;2024-02-23T00:57:38;96627.19;;;2.56;100.00
41862;BME280;27537;57.134;-2.136;2024-02-23T01:00:05;96631.09;;;2.61;100.00
41862;BME280;27537;57.134;-2.136;2024-02-23T01:02:32;96635.75;;;2.56;100.00
41862;BME280;27537;57.134;-2.136;2024-02-23T01:04:59;96632.56;;;2.53;100.00
41862;BME280;27537;57.134;-2.136;2024-02-23T01:07:26;96631.63;;;2.54;100.00
41862;BME280;27537;57.134;-2.136;2024-02-23T01:09:54;96627.09;;;2.57;100.00
41862;BME280;27537;57.134;-2.136;2024-02-23T01:12:21;96633.38;;;2.53;100.00
41862;BME280;27537;57.134;-2.136;2024-02-23T01:14:48;96624.09;;;2.51;100.00
41862;BME280;27537;57.134;-2.136;2024-02-23T01:17:15;96623.00;;;2.42;100.00
41862;BME280;27537;57.134;-2.136;2024-02-23T01:19:43;96626.78;;;2.49;100.00
41862;BME280;27537;57.134;-2.136;2024-02-23T01:22:10;96621.97;;;2.44;100.00
41862;BME280;27537;57.134;-2.136;2024-02-23T01:24:37;96618.88;;;2.39;100.00
41862;BME280;27537;57.134;-2.136;2024-02-23T01:27:03;96624.19;;;2.25;100.00
41862;BME280;27537;57.134;-2.136;2024-02-23T01:29:30;96622.94;;;2.31;100.00
41862;BME280;27537;57.134;-2.136;2024-02-23T01:31:57;96623.75;;;2.31;100.00
41862;BME280;27537;57.134;-2.136;2024-02-23T01:34:25;96619.53;;;2.17;100.00
41862;BME280;27537;57.134;-2.136;2024-02-23T01:36:52;96628.94;;;2.18;100.00
41862;BME280;27537;57.134;-2.136;2024-02-23T01:39:19;96626.03;;;2.23;100.00
41862;BME280;27537;57.134;-2.136;2024-02-23T01:41:45;96630.88;;;2.27;100.00
41862;BME280;27537;57.134;-2.136;2024-02-23T01:44:13;96625.72;;;2.27;100.00
41862;BME280;27537;57.134;-2.136;2024-02-23T01:46:44;96632.00;;;2.36;100.00
41862;BME280;27537;57.134;-2.136;2024-02-23T01:49:12;96632.72;;;2.38;100.00
41862;BME280;27537;57.134;-2.136;2024-02-23T01:51:39;96641.88;;;2.42;100.00
41862;BME280;27537;57.134;-2.136;2024-02-23T01:54:06;96630.22;;;2.37;100.00
41862;BME280;27537;57.134;-2.136;2024-02-23T01:56:33;96623.44;;;2.36;100.00
41862;BME280;27537;57.134;-2.136;2024-02-23T01:59:03;96639.03;;;2.34;100.00
41862;BME280;27537;57.134;-2.136;2024-02-23T02:01:31;96632.66;;;2.27;100.00
41862;BME280;27537;57.134;-2.136;2024-02-23T02:03:58;96630.78;;;2.29;100.00
41862;BME280;27537;57.134;-2.136;2024-02-23T02:06:25;96625.72;;;2.27;100.00
41862;BME280;27537;57.134;-2.136;2024-02-23T02:08:53;96624.50;;;2.20;100.00
41862;BME280;27537;57.134;-2.136;2024-02-23T02:11:20;96623.47;;;2.10;100.00
41862;BME280;27537;57.134;-2.136;2024-02-23T02:13:46;96622.66;;;2.09;100.00
41862;BME280;27537;57.134;-2.136;2024-02-23T02:16:13;96616.78;;;2.07;100.00
41862;BME280;27537;57.134;-2.136;2024-02-23T02:18:40;96616.56;;;2.11;100.00
41862;BME280;27537;57.134;-2.136;2024-02-23T02:21:06;96618.31;;;2.10;100.00
41862;BME280;27537;57.134;-2.136;2024-02-23T02:23:33;96618.28;;;2.23;100.00
41862;BME280;27537;57.134;-2.136;2024-02-23T02:26:00;96607.66;;;2.27;100.00
41862;BME280;27537;57.134;-2.136;2024-02-23T02:28:27;96602.50;;;2.27;100.00
41862;BME280;27537;57.134;-2.136;2024-02-23T02:30:53;96608.56;;;2.26;100.00
41862;BME280;27537;57.134;-2.136;2024-02-23T02:33:21;96601.56;;;2.28;100.00
41862;BME280;27537;57.134;-2.136;2024-02-23T02:35:48;96611.81;;;2.54;100.00
41862;BME280;27537;57.134;-2.136;2024-02-23T02:38:16;96607.56;;;2.53;100.00
41862;BME280;27537;57.134;-2.136;2024-02-23T02:40:43;96606.38;;;2.70;100.00
41862;BME280;27537;57.134;-2.136;2024-02-23T02:43:10;96617.69;;;2.80;100.00
41862;BME280;27537;57.134;-2.136;2024-02-23T02:45:37;96608.28;;;2.79;100.00
41862;BME280;27537;57.134;-2.136;2024-02-23T02:48:04;96619.94;;;2.85;100.00
41862;BME280;27537;57.134;-2.136;2024-02-23T02:50:31;96620.56;;;2.89;100.00
41862;BME280;27537;57.134;-2.136;2024-02-23T02:52:58;96618.78;;;2.89;100.00
41862;BME280;27537;57.134;-2.136;2024-02-23T02:55:25;96618.19;;;2.85;100.00
41862;BME280;27537;57.134;-2.136;2024-02-23T02:57:52;96612.75;;;2.77;100.00
41862;BME280;27537;57.134;-2.136;2024-02-23T03:00:18;96608.19;;;2.81;100.00
41862;BME280;27537;57.134;-2.136;2024-02-23T03:02:45;96605.09;;;2.76;100.00
41862;BME280;27537;57.134;-2.136;2024-02-23T03:05:12;96608.78;;;2.84;100.00
41862;BME280;27537;57.134;-2.136;2024-02-23T03:07:39;96609.13;;;2.80;100.00
41862;BME280;27537;57.134;-2.136;2024-02-23T03:10:06;96605.81;;;2.78;100.00
41862;BME280;27537;57.134;-2.136;2024-02-23T03:12:33;96608.53;;;2.76;100.00
41862;BME280;27537;57.134;-2.136;2024-02-23T03:15:00;96605.00;;;2.77;100.00
41862;BME280;27537;57.134;-2.136;2024-02-23T03:17:27;96607.97;;;2.84;100.00
41862;BME280;27537;57.134;-2.136;2024-02-23T03:19:53;96607.75;;;2.87;100.00
41862;BME280;27537;57.134;-2.136;2024-02-23T03:22:20;96603.41;;;2.88;100.00
41862;BME280;27537;57.134;-2.136;2024-02-23T03:24:47;96594.34;;;2.82;100.00
41862;BME280;27537;57.134;-2.136;2024-02-23T03:27:14;96605.66;;;2.92;100.00
41862;BME280;27537;57.134;-2.136;2024-02-23T03:29:41;96605.38;;;2.84;100.00
41862;BME280;27537;57.134;-2.136;2024-02-23T03:32:08;96600.53;;;2.79;100.00
41862;BME280;27537;57.134;-2.136;2024-02-23T03:34:35;96590.75;;;2.72;100.00
41862;BME280;27537;57.134;-2.136;2024-02-23T03:37:02;96599.53;;;2.69;100.00
41862;BME280;27537;57.134;-2.136;2024-02-23T03:39:29;96594.63;;;2.66;100.00
41862;BME280;27537;57.134;-2.136;2024-02-23T03:41:56;96599.78;;;2.66;100.00
41862;BME280;27537;57.134;-2.136;2024-02-23T03:44:23;96603.06;;;2.68;100.00
41862;BME280;27537;57.134;-2.136;2024-02-23T03:46:50;96596.97;;;2.69;100.00
41862;BME280;27537;57.134;-2.136;2024-02-23T03:49:17;96596.84;;;2.71;100.00
41862;BME280;27537;57.134;-2.136;2024-02-23T03:51:44;96599.44;;;2.71;100.00
41862;BME280;27537;57.134;-2.136;2024-02-23T03:54:10;96610.25;;;2.76;100.00
41862;BME280;27537;57.134;-2.136;2024-02-23T03:56:41;96597.13;;;2.79;100.00
41862;BME280;27537;57.134;-2.136;2024-02-23T03:59:08;96590.97;;;2.69;100.00
41862;BME280;27537;57.134;-2.136;2024-02-23T04:01:37;96588.47;;;2.80;100.00
41862;BME280;27537;57.134;-2.136;2024-02-23T04:04:04;96586.22;;;2.87;100.00
41862;BME280;27537;57.134;-2.136;2024-02-23T04:06:32;96588.06;;;2.73;100.00
41862;BME280;27537;57.134;-2.136;2024-02-23T04:08:59;96582.56;;;2.78;100.00
41862;BME280;27537;57.134;-2.136;2024-02-23T04:11:26;96584.09;;;2.80;100.00
41862;BME280;27537;57.134;-2.136;2024-02-23T04:13:56;96581.84;;;2.76;100.00
41862;BME280;27537;57.134;-2.136;2024-02-23T04:16:23;96583.34;;;2.67;100.00
41862;BME280;27537;57.134;-2.136;2024-02-23T04:18:54;96579.81;;;2.68;100.00
41862;BME280;27537;57.134;-2.136;2024-02-23T04:21:21;96582.31;;;2.70;100.00
41862;BME280;27537;57.134;-2.136;2024-02-23T04:23:48;96578.06;;;2.69;100.00
41862;BME280;27537;57.134;-2.136;2024-02-23T04:26:15;96579.72;;;2.70;100.00
41862;BME280;27537;57.134;-2.136;2024-02-23T04:28:41;96581.91;;;2.63;100.00
41862;BME280;27537;57.134;-2.136;2024-02-23T04:31:09;96585.22;;;2.65;100.00
41862;BME280;27537;57.134;-2.136;2024-02-23T04:33:37;96589.78;;;2.61;100.00
41862;BME280;27537;57.134;-2.136;2024-02-23T04:36:05;96591.53;;;2.61;100.00
41862;BME280;27537;57.134;-2.136;2024-02-23T04:38:32;96590.31;;;2.54;100.00
41862;BME280;27537;57.134;-2.136;2024-02-23T04:41:02;96585.31;;;2.39;100.00
41862;BME280;27537;57.134;-2.136;2024-02-23T04:43:29;96601.31;;;2.44;100.00
41862;BME280;27537;57.134;-2.136;2024-02-23T04:45:56;96602.44;;;2.40;100.00
41862;BME280;27537;57.134;-2.136;2024-02-23T04:48:25;96601.22;;;2.33;100.00
41862;BME280;27537;57.134;-2.136;2024-02-23T04:50:52;96613.41;;;2.31;100.00
41862;BME280;27537;57.134;-2.136;2024-02-23T04:53:19;96595.19;;;2.21;100.00
41862;BME280;27537;57.134;-2.136;2024-02-23T04:55:46;96616.00;;;2.31;100.00
41862;BME280;27537;57.134;-2.136;2024-02-23T04:58:12;96615.69;;;2.36;100.00
41862;BME280;27537;57.134;-2.136;2024-02-23T05:00:40;96610.03;;;2.31;100.00
41862;BME280;27537;57.134;-2.136;2024-02-23T05:03:06;96624.56;;;2.32;100.00
41862;BME280;27537;57.134;-2.136;2024-02-23T05:05:38;96622.09;;;2.30;100.00
41862;BME280;27537;57.134;-2.136;2024-02-23T05:08:05;96621.06;;;2.33;100.00
41862;BME280;27537;57.134;-2.136;2024-02-23T05:10:31;96620.44;;;2.29;100.00
41862;BME280;27537;57.134;-2.136;2024-02-23T05:12:58;96632.94;;;2.22;100.00
41862;BME280;27537;57.134;-2.136;2024-02-23T05:15:25;96621.31;;;2.17;100.00
41862;BME280;27537;57.134;-2.136;2024-02-23T05:17:52;96619.53;;;2.17;100.00
41862;BME280;27537;57.134;-2.136;2024-02-23T05:20:18;96612.63;;;2.18;100.00
41862;BME280;27537;57.134;-2.136;2024-02-23T05:22:45;96619.25;;;2.09;100.00
41862;BME280;27537;57.134;-2.136;2024-02-23T05:25:12;96615.03;;;2.08;100.00
41862;BME280;27537;57.134;-2.136;2024-02-23T05:27:38;96617.00;;;2.04;100.00
41862;BME280;27537;57.134;-2.136;2024-02-23T05:30:06;96618.25;;;1.99;100.00
41862;BME280;27537;57.134;-2.136;2024-02-23T05:32:33;96618.34;;;1.97;100.00
41862;BME280;27537;57.134;-2.136;2024-02-23T05:35:00;96619.88;;;2.00;100.00
41862;BME280;27537;57.134;-2.136;2024-02-23T05:37:29;96609.44;;;2.01;100.00
41862;BME280;27537;57.134;-2.136;2024-02-23T05:39:56;96620.94;;;1.97;100.00
41862;BME280;27537;57.134;-2.136;2024-02-23T05:42:24;96620.59;;;1.89;100.00
41862;BME280;27537;57.134;-2.136;2024-02-23T05:44:50;96621.66;;;1.86;100.00
41862;BME280;27537;57.134;-2.136;2024-02-23T05:47:17;96619.59;;;1.79;100.00
41862;BME280;27537;57.134;-2.136;2024-02-23T05:49:44;96631.38;;;1.70;100.00
41862;BME280;27537;57.134;-2.136;2024-02-23T05:52:11;96631.16;;;1.60;100.00
41862;BME280;27537;57.134;-2.136;2024-02-23T05:54:37;96627.63;;;1.36;100.00
41862;BME280;27537;57.134;-2.136;2024-02-23T05:57:04;96631.28;;;1.19;100.00
41862;BME280;27537;57.134;-2.136;2024-02-23T05:59:31;96629.53;;;1.06;100.00
41862;BME280;27537;57.134;-2.136;2024-02-23T06:01:58;96628.78;;;1.04;100.00
41862;BME280;27537;57.134;-2.136;2024-02-23T06:04:25;96631.16;;;1.07;100.00
41862;BME280;27537;57.134;-2.136;2024-02-23T06:06:52;96620.78;;;1.09;100.00
41862;BME280;27537;57.134;-2.136;2024-02-23T06:09:19;96630.97;;;1.10;100.00
41862;BME280;27537;57.134;-2.136;2024-02-23T06:11:46;96634.00;;;1.17;100.00
41862;BME280;27537;57.134;-2.136;2024-02-23T06:14:13;96635.16;;;1.26;100.00
41862;BME280;27537;57.134;-2.136;2024-02-23T06:16:40;96649.13;;;1.22;100.00
41862;BME280;27537;57.134;-2.136;2024-02-23T06:19:07;96650.81;;;1.23;100.00
41862;BME280;27537;57.134;-2.136;2024-02-23T06:21:34;96656.34;;;1.17;100.00
41862;BME280;27537;57.134;-2.136;2024-02-23T06:24:01;96655.63;;;1.14;100.00
41862;BME280;27537;57.134;-2.136;2024-02-23T06:26:29;96661.38;;;1.18;100.00
41862;BME280;27537;57.134;-2.136;2024-02-23T06:28:56;96658.63;;;1.21;100.00
41862;BME280;27537;57.134;-2.136;2024-02-23T06:31:22;96655.22;;;1.21;100.00
41862;BME280;27537;57.134;-2.136;2024-02-23T06:33:50;96652.66;;;1.21;100.00
41862;BME280;27537;57.134;-2.136;2024-02-23T06:36:18;96667.56;;;1.03;100.00
41862;BME280;27537;57.134;-2.136;2024-02-23T06:38:45;96663.13;;;0.78;100.00
41862;BME280;27537;57.134;-2.136;2024-02-23T06:41:12;96665.72;;;0.63;100.00
41862;BME280;27537;57.134;-2.136;2024-02-23T06:43:38;96668.03;;;0.68;100.00
41862;BME280;27537;57.134;-2.136;2024-02-23T06:46:09;96669.25;;;0.62;100.00
41862;BME280;27537;57.134;-2.136;2024-02-23T06:48:36;96680.31;;;0.77;100.00
41862;BME280;27537;57.134;-2.136;2024-02-23T06:51:05;96681.00;;;0.66;100.00
41862;BME280;27537;57.134;-2.136;2024-02-23T06:53:33;96675.66;;;0.69;100.00
41862;BME280;27537;57.134;-2.136;2024-02-23T06:56:00;96678.72;;;1.29;100.00
41862;BME280;27537;57.134;-2.136;2024-02-23T06:58:27;96678.25;;;1.37;100.00
41862;BME280;27537;57.134;-2.136;2024-02-23T07:00:54;96701.13;;;1.41;100.00
41862;BME280;27537;57.134;-2.136;2024-02-23T07:03:22;96700.59;;;1.36;100.00
41862;BME280;27537;57.134;-2.136;2024-02-23T07:05:48;96690.13;;;0.85;100.00
41862;BME280;27537;57.134;-2.136;2024-02-23T07:08:16;96682.47;;;0.56;100.00
41862;BME280;27537;57.134;-2.136;2024-02-23T07:10:43;96687.22;;;0.77;100.00
41862;BME280;27537;57.134;-2.136;2024-02-23T07:13:10;96695.88;;;1.03;100.00
41862;BME280;27537;57.134;-2.136;2024-02-23T07:15:37;96685.91;;;1.11;100.00
41862;BME280;27537;57.134;-2.136;2024-02-23T07:18:04;96704.41;;;1.30;100.00
41862;BME280;27537;57.134;-2.136;2024-02-23T07:20:31;96704.34;;;1.45;100.00
41862;BME280;27537;57.134;-2.136;2024-02-23T07:22:58;96698.28;;;1.59;100.00
41862;BME280;27537;57.134;-2.136;2024-02-23T07:25:25;96704.38;;;1.70;100.00
41862;BME280;27537;57.134;-2.136;2024-02-23T07:27:52;96697.38;;;1.60;100.00
41862;BME280;27537;57.134;-2.136;2024-02-23T07:30:19;96703.16;;;1.76;100.00
41862;BME280;27537;57.134;-2.136;2024-02-23T07:32:46;96708.13;;;1.79;100.00
41862;BME280;27537;57.134;-2.136;2024-02-23T07:35:18;96694.38;;;1.66;100.00
41862;BME280;27537;57.134;-2.136;2024-02-23T07:37:46;96700.28;;;1.94;100.00
41862;BME280;27537;57.134;-2.136;2024-02-23T07:40:13;96693.88;;;1.99;100.00
41862;BME280;27537;57.134;-2.136;2024-02-23T07:42:43;96708.22;;;1.90;100.00
41862;BME280;27537;57.134;-2.136;2024-02-23T07:45:10;96698.50;;;1.94;100.00
41862;BME280;27537;57.134;-2.136;2024-02-23T07:47:37;96708.22;;;2.03;100.00
41862;BME280;27537;57.134;-2.136;2024-02-23T07:50:04;96699.25;;;2.22;100.00
41862;BME280;27537;57.134;-2.136;2024-02-23T07:52:31;96698.28;;;2.23;100.00
41862;BME280;27537;57.134;-2.136;2024-02-23T07:54:58;96703.69;;;2.20;100.00
41862;BME280;27537;57.134;-2.136;2024-02-23T07:57:26;96704.00;;;2.02;100.00
41862;BME280;27537;57.134;-2.136;2024-02-23T07:59:53;96707.69;;;1.98;100.00
41862;BME280;27537;57.134;-2.136;2024-02-23T08:02:21;96703.38;;;2.12;100.00
41862;BME280;27537;57.134;-2.136;2024-02-23T08:04:49;96702.84;;;2.06;100.00
41862;BME280;27537;57.134;-2.136;2024-02-23T08:07:17;96714.75;;;2.09;100.00
41862;BME280;27537;57.134;-2.136;2024-02-23T08:09:43;96712.03;;;1.72;100.00
41862;BME280;27537;57.134;-2.136;2024-02-23T08:12:11;96694.63;;;2.51;100.00
41862;BME280;27537;57.134;-2.136;2024-02-23T08:14:40;96702.84;;;3.30;100.00
41862;BME280;27537;57.134;-2.136;2024-02-23T08:17:10;96695.94;;;3.77;100.00
41862;BME280;27537;57.134;-2.136;2024-02-23T08:19:40;96699.53;;;4.22;100.00
41862;BME280;27537;57.134;-2.136;2024-02-23T08:22:06;96704.94;;;4.52;100.00
41862;BME280;27537;57.134;-2.136;2024-02-23T08:24:33;96706.94;;;4.71;100.00
41862;BME280;27537;57.134;-2.136;2024-02-23T08:27:00;96710.25;;;5.17;100.00
41862;BME280;27537;57.134;-2.136;2024-02-23T08:29:26;96728.16;;;6.06;100.00
41862;BME280;27537;57.134;-2.136;2024-02-23T08:31:53;96737.13;;;6.23;100.00
41862;BME280;27537;57.134;-2.136;2024-02-23T08:34:20;96741.38;;;6.55;100.00
41862;BME280;27537;57.134;-2.136;2024-02-23T08:36:47;96753.69;;;6.83;100.00
41862;BME280;27537;57.134;-2.136;2024-02-23T08:39:14;96748.16;;;7.27;100.00
41862;BME280;27537;57.134;-2.136;2024-02-23T08:41:40;96761.84;;;7.29;100.00
41862;BME280;27537;57.134;-2.136;2024-02-23T08:44:07;96769.16;;;7.55;100.00
41862;BME280;27537;57.134;-2.136;2024-02-23T08:46:34;96791.31;;;7.30;100.00
41862;BME280;27537;57.134;-2.136;2024-02-23T08:49:01;96802.91;;;6.75;100.00
41862;BME280;27537;57.134;-2.136;2024-02-23T08:51:27;96801.38;;;6.21;100.00
41862;BME280;27537;57.134;-2.136;2024-02-23T08:53:54;96793.00;;;6.38;100.00
41862;BME280;27537;57.134;-2.136;2024-02-23T08:56:26;96804.88;;;6.62;100.00
41862;BME280;27537;57.134;-2.136;2024-02-23T08:58:53;96801.44;;;6.52;100.00
41862;BME280;27537;57.134;-2.136;2024-02-23T09:01:20;96799.41;;;6.86;100.00
41862;BME280;27537;57.134;-2.136;2024-02-23T09:03:46;96806.41;;;6.95;100.00
41862;BME280;27537;57.134;-2.136;2024-02-23T09:06:13;96798.09;;;7.11;100.00
41862;BME280;27537;57.134;-2.136;2024-02-23T09:08:40;96801.19;;;7.26;100.00
41862;BME280;27537;57.134;-2.136;2024-02-23T09:11:07;96807.44;;;7.23;100.00
41862;BME280;27537;57.134;-2.136;2024-02-23T09:13:35;96802.56;;;7.40;100.00
41862;BME280;27537;57.134;-2.136;2024-02-23T09:16:01;96811.28;;;7.19;100.00
41862;BME280;27537;57.134;-2.136;2024-02-23T09:18:29;96802.38;;;6.81;100.00
41862;BME280;27537;57.134;-2.136;2024-02-23T09:20:56;96803.81;;;6.95;100.00
41862;BME280;27537;57.134;-2.136;2024-02-23T09:23:23;96808.88;;;6.97;100.00
41862;BME280;27537;57.134;-2.136;2024-02-23T09:25:50;96806.31;;;7.07;100.00
41862;BME280;27537;57.134;-2.136;2024-02-23T09:28:17;96805.84;;;6.92;100.00
41862;BME280;27537;57.134;-2.136;2024-02-23T09:30:43;96807.00;;;7.09;100.00
41862;BME280;27537;57.134;-2.136;2024-02-23T09:33:10;96801.94;;;7.17;100.00
41862;BME280;27537;57.134;-2.136;2024-02-23T09:35:37;96812.44;;;6.96;100.00
41862;BME280;27537;57.134;-2.136;2024-02-23T09:38:04;96817.03;;;6.82;100.00
41862;BME280;27537;57.134;-2.136;2024-02-23T09:40:30;96823.91;;;6.93;100.00
41862;BME280;27537;57.134;-2.136;2024-02-23T09:42:58;96821.97;;;6.86;100.00
41862;BME280;27537;57.134;-2.136;2024-02-23T09:45:26;96822.88;;;7.06;100.00
41862;BME280;27537;57.134;-2.136;2024-02-23T09:47:54;96819.16;;;6.98;100.00
41862;BME280;27537;57.134;-2.136;2024-02-23T09:50:23;96826.06;;;7.19;100.00
41862;BME280;27537;57.134;-2.136;2024-02-23T09:52:50;96828.94;;;7.16;100.00
41862;BME280;27537;57.134;-2.136;2024-02-23T09:55:18;96835.25;;;7.23;100.00
41862;BME280;27537;57.134;-2.136;2024-02-23T09:57:48;96836.88;;;7.24;100.00
41862;BME280;27537;57.134;-2.136;2024-02-23T10:00:17;96834.91;;;7.47;100.00
41862;BME280;27537;57.134;-2.136;2024-02-23T10:02:45;96850.16;;;7.71;100.00
41862;BME280;27537;57.134;-2.136;2024-02-23T10:05:12;96838.75;;;7.63;100.00
41862;BME280;27537;57.134;-2.136;2024-02-23T10:07:40;96859.97;;;7.48;100.00
41862;BME280;27537;57.134;-2.136;2024-02-23T10:10:08;96854.13;;;7.75;100.00
41862;BME280;27537;57.134;-2.136;2024-02-23T10:12:35;96859.75;;;7.71;100.00
41862;BME280;27537;57.134;-2.136;2024-02-23T10:15:03;96872.44;;;7.45;100.00
41862;BME280;27537;57.134;-2.136;2024-02-23T10:17:32;96874.28;;;7.64;100.00
41862;BME280;27537;57.134;-2.136;2024-02-23T10:20:02;96868.50;;;7.60;100.00
41862;BME280;27537;57.134;-2.136;2024-02-23T10:22:35;96873.16;;;7.56;100.00
41862;BME280;27537;57.134;-2.136;2024-02-23T10:25:01;96878.88;;;7.50;100.00
41862;BME280;27537;57.134;-2.136;2024-02-23T10:27:28;96873.81;;;7.49;100.00
41862;BME280;27537;57.134;-2.136;2024-02-23T10:29:55;96877.81;;;7.53;100.00
41862;BME280;27537;57.134;-2.136;2024-02-23T10:32:23;96875.97;;;7.94;100.00
41862;BME280;27537;57.134;-2.136;2024-02-23T10:34:55;96882.25;;;7.91;100.00
41862;BME280;27537;57.134;-2.136;2024-02-23T10:37:26;96880.59;;;8.00;100.00
41862;BME280;27537;57.134;-2.136;2024-02-23T10:39:57;96885.81;;;7.90;100.00
41862;BME280;27537;57.134;-2.136;2024-02-23T10:42:30;96887.63;;;8.09;100.00
41862;BME280;27537;57.134;-2.136;2024-02-23T10:44:58;96886.94;;;8.46;100.00
41862;BME280;27537;57.134;-2.136;2024-02-23T10:47:28;96892.97;;;8.57;100.00
41862;BME280;27537;57.134;-2.136;2024-02-23T10:50:00;96896.00;;;8.71;100.00
41862;BME280;27537;57.134;-2.136;2024-02-23T10:52:28;96899.31;;;8.54;100.00
41862;BME280;27537;57.134;-2.136;2024-02-23T10:54:57;96900.53;;;8.60;100.00
41862;BME280;27537;57.134;-2.136;2024-02-23T10:57:27;96905.44;;;8.72;100.00
41862;BME280;27537;57.134;-2.136;2024-02-23T10:59:54;96903.78;;;8.81;100.00
41862;BME280;27537;57.134;-2.136;2024-02-23T11:02:22;96902.38;;;8.97;100.00
41862;BME280;27537;57.134;-2.136;2024-02-23T11:04:52;96906.56;;;8.70;100.00
41862;BME280;27537;57.134;-2.136;2024-02-23T11:07:20;96901.53;;;9.06;100.00
41862;BME280;27537;57.134;-2.136;2024-02-23T11:10:14;96911.38;;;9.22;100.00
41862;BME280;27537;57.134;-2.136;2024-02-23T11:12:41;96916.59;;;9.22;100.00
41862;BME280;27537;57.134;-2.136;2024-02-23T11:15:08;96933.72;;;9.34;100.00
41862;BME280;27537;57.134;-2.136;2024-02-23T11:17:36;96932.13;;;9.13;100.00
41862;BME280;27537;57.134;-2.136;2024-02-23T11:20:05;96928.69;;;9.23;100.00
41862;BME280;27537;57.134;-2.136;2024-02-23T11:22:34;96928.81;;;9.59;100.00
41862;BME280;27537;57.134;-2.136;2024-02-23T11:25:06;96928.56;;;9.15;100.00
41862;BME280;27537;57.134;-2.136;2024-02-23T11:27:36;96934.69;;;8.86;100.00
41862;BME280;27537;57.134;-2.136;2024-02-23T11:30:05;96936.03;;;9.00;100.00
41862;BME280;27537;57.134;-2.136;2024-02-23T11:32:40;96940.97;;;8.93;100.00
41862;BME280;27537;57.134;-2.136;2024-02-23T11:35:10;96938.81;;;9.26;100.00
41862;BME280;27537;57.134;-2.136;2024-02-23T11:37:56;96944.81;;;9.08;100.00
41862;BME280;27537;57.134;-2.136;2024-02-23T11:40:26;96942.22;;;9.36;100.00
41862;BME280;27537;57.134;-2.136;2024-02-23T11:42:57;96943.88;;;9.37;100.00
41862;BME280;27537;57.134;-2.136;2024-02-23T11:45:24;96945.56;;;9.28;100.00
41862;BME280;27537;57.134;-2.136;2024-02-23T11:47:51;96943.63;;;9.68;100.00
41862;BME280;27537;57.134;-2.136;2024-02-23T11:50:19;96953.09;;;9.69;100.00
41862;BME280;27537;57.134;-2.136;2024-02-23T11:52:48;96954.16;;;9.76;100.00
41862;BME280;27537;57.134;-2.136;2024-02-23T11:55:19;96964.84;;;9.55;100.00
41862;BME280;27537;57.134;-2.136;2024-02-23T11:57:50;96957.19;;;9.44;100.00
41862;BME280;27537;57.134;-2.136;2024-02-23T12:00:30;96959.63;;;9.55;100.00
41862;BME280;27537;57.134;-2.136;2024-02-23T12:02:57;96960.94;;;9.31;100.00
41862;BME280;27537;57.134;-2.136;2024-02-23T12:05:24;96969.06;;;9.19;100.00
41862;BME280;27537;57.134;-2.136;2024-02-23T12:07:51;96972.97;;;8.95;100.00
41862;BME280;27537;57.134;-2.136;2024-02-23T12:10:21;96976.94;;;8.99;100.00
41862;BME280;27537;57.134;-2.136;2024-02-23T12:12:53;96986.97;;;9.04;100.00
41862;BME280;27537;57.134;-2.136;2024-02-23T12:15:20;96993.28;;;9.11;100.00
41862;BME280;27537;57.134;-2.136;2024-02-23T12:17:48;96993.13;;;9.03;100.00
41862;BME280;27537;57.134;-2.136;2024-02-23T12:20:15;96988.09;;;9.01;100.00
41862;BME280;27537;57.134;-2.136;2024-02-23T12:22:42;96995.44;;;9.25;100.00
41862;BME280;27537;57.134;-2.136;2024-02-23T12:25:09;97004.44;;;9.50;100.00
41862;BME280;27537;57.134;-2.136;2024-02-23T12:27:38;96998.59;;;9.29;100.00
41862;BME280;27537;57.134;-2.136;2024-02-23T12:30:05;97003.63;;;9.50;100.00
41862;BME280;27537;57.134;-2.136;2024-02-23T12:32:32;97010.78;;;9.48;100.00
41862;BME280;27537;57.134;-2.136;2024-02-23T12:34:59;96997.38;;;9.13;100.00
41862;BME280;27537;57.134;-2.136;2024-02-23T12:37:25;97001.78;;;9.13;100.00
41862;BME280;27537;57.134;-2.136;2024-02-23T12:39:52;97005.19;;;9.13;100.00
41862;BME280;27537;57.134;-2.136;2024-02-23T12:42:19;97008.78;;;9.12;100.00
41862;BME280;27537;57.134;-2.136;2024-02-23T12:44:46;97003.75;;;9.01;100.00
41862;BME280;27537;57.134;-2.136;2024-02-23T12:47:13;97007.44;;;9.08;100.00
41862;BME280;27537;57.134;-2.136;2024-02-23T12:49:40;97010.81;;;9.19;100.00
41862;BME280;27537;57.134;-2.136;2024-02-23T12:52:12;97013.34;;;8.91;100.00